createdAt,value
2023-01-27T00:00:38.179Z,1004.22
2023-01-27T00:05:38.105Z,1004.18
2023-01-27T00:10:38.055Z,1004.14
2023-01-27T00:15:38.057Z,1004.10
2023-01-27T00:20:37.929Z,1004.03
2023-01-27T00:25:37.847Z,1004.05
2023-01-27T00:30:37.800Z,1004.02
2023-01-27T00:35:37.720Z,1004.09
2023-01-27T00:40:37.666Z,1004.06
2023-01-27T00:45:37.593Z,1004.00
2023-01-27T00:50:37.536Z,1004.03
2023-01-27T00:55:37.465Z,1003.91
2023-01-27T01:00:37.421Z,1003.97
2023-01-27T01:05:37.353Z,1004.01
2023-01-27T01:10:37.297Z,1003.97
2023-01-27T01:15:37.223Z,1003.94
2023-01-27T01:20:37.172Z,1004.02
2023-01-27T01:25:37.095Z,1004.09
2023-01-27T01:30:37.044Z,1004.03
2023-01-27T01:35:36.963Z,1004.07
2023-01-27T01:40:36.914Z,1004.03
2023-01-27T01:45:36.870Z,1004.04
2023-01-27T01:50:36.788Z,1004.06
2023-01-27T01:55:36.775Z,1004.10
2023-01-27T02:00:36.655Z,1004.13
2023-01-27T02:05:36.681Z,1004.10
2023-01-27T02:10:36.526Z,1004.11
2023-01-27T02:15:36.490Z,1004.17
2023-01-27T02:20:36.405Z,1004.18
2023-01-27T02:25:36.327Z,1004.07
2023-01-27T02:30:36.441Z,1004.07
2023-01-27T02:35:36.197Z,1003.96
2023-01-27T02:40:36.149Z,1003.94
2023-01-27T02:45:36.071Z,1004.02
2023-01-27T02:50:36.014Z,1004.05
2023-01-27T02:55:35.976Z,1004.15
2023-01-27T03:00:35.893Z,1004.17
2023-01-27T03:05:35.837Z,1004.25
2023-01-27T03:10:35.770Z,1004.39
2023-01-27T03:15:35.762Z,1004.51
2023-01-27T03:20:35.649Z,1004.43
2023-01-27T03:25:35.576Z,1004.44
2023-01-27T03:30:35.744Z,1004.50
2023-01-27T03:35:35.449Z,1004.60
2023-01-27T03:40:35.408Z,1004.55
2023-01-27T03:45:35.307Z,1004.60
2023-01-27T03:50:35.253Z,1004.55
2023-01-27T03:55:35.192Z,1004.62
2023-01-27T04:00:35.125Z,1004.55
2023-01-27T04:05:35.056Z,1004.58
2023-01-27T04:10:35.002Z,1004.58
2023-01-27T04:15:34.951Z,1004.60
2023-01-27T04:20:34.872Z,1004.65
2023-01-27T04:25:34.802Z,1004.68
2023-01-27T04:30:34.774Z,1004.61
2023-01-27T04:35:39.000Z,1004.66
2023-01-27T04:40:34.628Z,1004.72
2023-01-27T04:45:34.575Z,1004.77
2023-01-27T04:50:34.499Z,1004.78
2023-01-27T04:55:34.434Z,1004.89
2023-01-27T05:00:34.355Z,1004.86
2023-01-27T05:05:34.308Z,1004.90
2023-01-27T05:10:34.217Z,1004.81
2023-01-27T05:15:34.220Z,1004.76
2023-01-27T05:20:34.101Z,1004.76
2023-01-27T05:25:34.045Z,1004.83
2023-01-27T05:30:34.115Z,1004.90
2023-01-27T05:35:33.921Z,1004.95
2023-01-27T05:40:33.836Z,1004.98
2023-01-27T05:45:33.791Z,1004.90
2023-01-27T05:50:33.708Z,1005.03
2023-01-27T05:55:33.653Z,1005.03
2023-01-27T06:00:33.590Z,1005.05
2023-01-27T06:05:33.528Z,1005.16
2023-01-27T06:10:33.455Z,1005.15
2023-01-27T06:15:33.400Z,1005.21
2023-01-27T06:20:33.333Z,1005.18
2023-01-27T06:25:33.472Z,1005.19
2023-01-27T06:30:33.204Z,1005.27
2023-01-27T06:35:33.155Z,1005.32
2023-01-27T06:40:33.073Z,1005.38
2023-01-27T06:45:33.039Z,1005.42
2023-01-27T06:50:32.948Z,1005.38
2023-01-27T06:55:32.900Z,1005.42
2023-01-27T07:00:32.818Z,1005.55
2023-01-27T07:05:32.775Z,1005.52
2023-01-27T07:10:32.698Z,1005.58
2023-01-27T07:15:32.660Z,1005.60
2023-01-27T07:20:32.582Z,1005.71
2023-01-27T07:25:32.525Z,1005.70
2023-01-27T07:30:32.446Z,1005.76
2023-01-27T07:35:32.384Z,1005.77
2023-01-27T07:40:32.315Z,1005.91
2023-01-27T07:45:32.318Z,1005.87
2023-01-27T07:50:32.194Z,1005.93
2023-01-27T07:55:32.147Z,1005.93
2023-01-27T08:00:32.076Z,1005.95
2023-01-27T08:05:31.997Z,1006.04
2023-01-27T08:10:31.944Z,1006.10
2023-01-27T08:15:31.868Z,1006.12
2023-01-27T08:20:31.810Z,1006.12
2023-01-27T08:25:31.738Z,1006.12
2023-01-27T08:30:31.687Z,1006.22
2023-01-27T08:35:31.624Z,1006.21
2023-01-27T08:40:31.563Z,1006.26
2023-01-27T08:45:31.495Z,1006.23
2023-01-27T08:50:31.436Z,1006.31
2023-01-27T08:55:31.372Z,1006.31
2023-01-27T09:00:31.305Z,1006.36
2023-01-27T09:05:31.241Z,1006.37
2023-01-27T09:10:31.174Z,1006.43
2023-01-27T09:15:31.105Z,1006.44
2023-01-27T09:20:31.049Z,1006.51
2023-01-27T09:25:30.987Z,1006.48
2023-01-27T09:30:30.922Z,1006.43
2023-01-27T09:35:30.851Z,1006.48
2023-01-27T09:40:30.808Z,1006.55
2023-01-27T09:45:30.725Z,1006.52
2023-01-27T09:50:30.669Z,1006.46
2023-01-27T09:55:30.611Z,1006.42
2023-01-27T10:00:30.540Z,1006.43
2023-01-27T10:05:30.487Z,1006.46
2023-01-27T10:10:30.414Z,1006.49
2023-01-27T10:15:30.352Z,1006.55
2023-01-27T10:20:30.287Z,1006.45
2023-01-27T10:25:30.223Z,1006.51
2023-01-27T10:30:30.167Z,1006.59
2023-01-27T10:35:30.100Z,1006.55
2023-01-27T10:40:30.043Z,1006.56
2023-01-27T10:45:29.967Z,1006.59
2023-01-27T10:50:29.912Z,1006.56
2023-01-27T10:55:29.829Z,1006.55
2023-01-27T11:05:30.729Z,1006.47
2023-01-27T11:10:29.647Z,1006.48
2023-01-27T11:15:29.574Z,1006.47
2023-01-27T11:20:29.516Z,1006.34
2023-01-27T11:25:29.446Z,1006.41
2023-01-27T11:30:29.472Z,1006.39
2023-01-27T11:35:29.318Z,1006.35
2023-01-27T11:40:29.261Z,1006.28
2023-01-27T11:45:29.230Z,1006.28
2023-01-27T11:50:29.142Z,1006.24
2023-01-27T11:55:29.071Z,1006.27
2023-01-27T12:00:29.012Z,1006.20
2023-01-27T12:05:28.935Z,1006.18
2023-01-27T12:10:28.886Z,1006.10
2023-01-27T12:15:28.808Z,1006.03
2023-01-27T12:20:28.760Z,1006.02
2023-01-27T12:25:28.684Z,1006.04
2023-01-27T12:30:28.623Z,1005.99
2023-01-27T12:35:28.549Z,1006.00
2023-01-27T12:40:28.489Z,1005.97
2023-01-27T12:45:28.420Z,1006.04
2023-01-27T12:50:28.359Z,1006.02
2023-01-27T12:55:28.288Z,1006.01
2023-01-27T13:00:28.243Z,1005.98
2023-01-27T13:05:28.161Z,1005.95
2023-01-27T13:10:28.110Z,1005.94
2023-01-27T13:15:28.033Z,1005.91
2023-01-27T13:20:27.985Z,1005.92
2023-01-27T13:25:27.909Z,1005.97
2023-01-27T13:30:27.849Z,1005.96
2023-01-27T13:35:27.780Z,1006.02
2023-01-27T13:40:27.719Z,1006.02
2023-01-27T13:45:27.648Z,1006.00
2023-01-27T13:50:27.602Z,1006.05
2023-01-27T13:55:27.545Z,1006.13
2023-01-27T14:00:27.473Z,1006.19
2023-01-27T14:05:27.393Z,1006.26
2023-01-27T14:10:27.345Z,1006.34
2023-01-27T14:15:27.272Z,1006.34
2023-01-27T14:20:27.238Z,1006.44
2023-01-27T14:25:27.137Z,1006.45
2023-01-27T14:30:27.256Z,1006.43
2023-01-27T14:35:27.021Z,1006.49
2023-01-27T14:40:26.954Z,1006.51
2023-01-27T14:45:26.881Z,1006.49
2023-01-27T14:50:26.824Z,1006.41
2023-01-27T14:55:26.754Z,1006.51
2023-01-27T15:00:26.747Z,1006.54
2023-01-27T15:05:26.646Z,1006.53
2023-01-27T15:10:26.591Z,1006.57
2023-01-27T15:15:26.503Z,1006.57
2023-01-27T15:20:26.475Z,1006.58
2023-01-27T15:25:26.373Z,1006.61
2023-01-27T15:30:26.332Z,1006.65
2023-01-27T15:35:26.249Z,1006.62
2023-01-27T15:40:26.196Z,1006.70
2023-01-27T15:45:26.188Z,1006.73
2023-01-27T15:50:26.066Z,1006.72
2023-01-27T15:55:26.007Z,1006.81
2023-01-27T16:00:25.928Z,1006.88
2023-01-27T16:05:25.873Z,1006.90
2023-01-27T16:10:25.803Z,1007.00
2023-01-27T16:15:25.740Z,1007.03
2023-01-27T16:20:25.675Z,1007.09
2023-01-27T16:25:25.612Z,1007.11
2023-01-27T16:30:25.607Z,1007.05
2023-01-27T16:35:25.478Z,1007.16
2023-01-27T16:40:25.421Z,1007.14
2023-01-27T16:45:25.349Z,1007.17
2023-01-27T16:50:25.292Z,1007.17
2023-01-27T16:55:25.219Z,1007.15
2023-01-27T17:00:25.167Z,1007.21
2023-01-27T17:05:25.089Z,1007.23
2023-01-27T17:10:34.263Z,1007.24
2023-01-27T17:15:24.974Z,1007.32
2023-01-27T17:20:24.919Z,1007.30
2023-01-27T17:25:24.842Z,1007.33
2023-01-27T17:30:24.787Z,1007.39
2023-01-27T17:35:24.714Z,1007.43
2023-01-27T17:40:24.648Z,1007.47
2023-01-27T17:45:24.589Z,1007.52
2023-01-27T17:50:24.526Z,1007.52
2023-01-27T17:55:24.453Z,1007.55
2023-01-27T18:00:24.425Z,1007.57
2023-01-27T18:05:24.332Z,1007.58
2023-01-27T18:10:24.275Z,1007.60
2023-01-27T18:15:24.195Z,1007.59
2023-01-27T18:20:24.145Z,1007.60
2023-01-27T18:25:24.071Z,1007.58
2023-01-27T18:30:24.015Z,1007.68
2023-01-27T18:35:23.960Z,1007.74
2023-01-27T18:40:23.895Z,1007.82
2023-01-27T18:45:23.831Z,1007.86
2023-01-27T18:50:23.811Z,1007.92
2023-01-27T18:55:23.804Z,1007.89
2023-01-27T19:00:23.690Z,1007.94
2023-01-27T19:05:23.591Z,1007.99
2023-01-27T19:10:23.516Z,1007.97
2023-01-27T19:15:23.440Z,1007.97
2023-01-27T19:20:23.387Z,1007.99
2023-01-27T19:25:23.326Z,1008.00
2023-01-27T19:30:23.261Z,1008.02
2023-01-27T19:35:23.190Z,1008.02
2023-01-27T19:40:23.145Z,1008.05
2023-01-27T19:45:23.099Z,1008.06
2023-01-27T19:50:23.006Z,1008.03
2023-01-27T19:55:22.949Z,1008.13
2023-01-27T20:00:22.880Z,1008.19
2023-01-27T20:05:22.820Z,1008.16
2023-01-27T20:10:22.758Z,1008.17
2023-01-27T20:15:22.691Z,1008.23
2023-01-27T20:20:22.627Z,1008.26
2023-01-27T20:25:22.571Z,1008.34
2023-01-27T20:30:22.553Z,1008.33
2023-01-27T20:35:22.433Z,1008.30
2023-01-27T20:40:22.371Z,1008.33
2023-01-27T20:45:22.301Z,1008.34
2023-01-27T20:50:24.331Z,1008.40
2023-01-27T20:55:22.175Z,1008.45
2023-01-27T21:00:22.127Z,1008.50
2023-01-27T21:05:22.067Z,1008.47
2023-01-27T21:10:22.001Z,1008.53
2023-01-27T21:15:21.922Z,1008.51
2023-01-27T21:20:21.865Z,1008.45
2023-01-27T21:25:21.801Z,1008.46
2023-01-27T21:30:21.739Z,1008.54
2023-01-27T21:35:21.672Z,1008.54
2023-01-27T21:40:21.613Z,1008.51
2023-01-27T21:45:21.541Z,1008.56
2023-01-27T21:50:21.498Z,1008.54
2023-01-27T21:55:21.449Z,1008.55
2023-01-27T22:00:21.426Z,1008.55
2023-01-27T22:05:21.292Z,1008.61
2023-01-27T22:10:21.245Z,1008.59
2023-01-27T22:15:21.164Z,1008.57
2023-01-27T22:20:21.250Z,1008.62
2023-01-27T22:25:21.471Z,1008.63
2023-01-27T22:30:20.986Z,1008.50
2023-01-27T22:35:20.943Z,1008.48
2023-01-27T22:40:20.922Z,1008.45
2023-01-27T22:45:20.886Z,1008.41
2023-01-27T22:50:20.818Z,1008.58
2023-01-27T22:55:20.660Z,1008.54
2023-01-27T23:00:20.605Z,1008.44
2023-01-27T23:05:20.614Z,1008.57
2023-01-27T23:10:20.489Z,1008.55
2023-01-27T23:15:20.409Z,1008.55
2023-01-27T23:20:20.362Z,1008.53
2023-01-27T23:25:20.283Z,1008.50
2023-01-27T23:30:20.240Z,1008.47
2023-01-27T23:35:20.162Z,1008.50
2023-01-27T23:40:20.143Z,1008.54
2023-01-27T23:45:20.033Z,1008.56
2023-01-27T23:50:19.990Z,1008.51
2023-01-27T23:55:19.910Z,1008.46
